Aviation Digital Data Service (ADDS)

Output produced by METARs form (1715 UTC 03 June 2020)
found at http://www.aviationweather.gov/metar/data/
 
Forecast for: EKCH (COPENHAGEN/KASTR, DK)
Text: TAF EKCH 031711Z 0318/0418 10012KT CAVOK
Forecast period: 1800 UTC 03 June 2020 to 1800 UTC 04 June 2020
Forecast type: FROM: standard forecast or significant change
Winds: from the E (100 degrees) at 14 MPH (12 knots; 6.2 m/s)
Visibility: 6 or more miles 10+ km)
Ceiling: unknown
Clouds: missing
Weather: NSW  (no significant weather)
Text: TEMPO 0408/0418 11018G28KT
Forecast period: 0800 to 1800 UTC 04 June 2020
Forecast type: TEMPORARY: The following changes expected for less than half the time period
Winds: from the ESE (110 degrees) at 21 MPH (18 knots; 9.3 m/s)
gusting to 32 MPH (28 knots; 14.4 m/s)
Visibility: missing
Ceiling: unknown
Clouds: missing
Weather: no significant weather forecast for this period